Time;durP1;ratioP1;P1;durP2;ratioP2;P2;SDS_P1;SDS_P2;PMS_P1;PMS_P2;Temp;Humidity;BMP_temperature;BMP_pressure;BME280_temperature;BME280_humidity;BME280_pressure;Samples;Min_cycle;Max_cycle;Signal;HPM_P1;HPM_P2
2023/05/26 00:00:51;;;;;;;11.57;8.10;;;;;;;;;;10377108;28;20025;-70
2023/05/26 00:05:54;;;;;;;16.20;9.00;;;;;;;;;;10377525;28;20092;-67
2023/05/26 00:10:54;;;;;;;17.40;9.23;;;;;;;;;;10377306;28;20275;-70
2023/05/26 00:15:54;;;;;;;18.17;9.80;;;;;;;;;;10378016;28;20053;-70
2023/05/26 00:20:54;;;;;;;17.45;10.20;;;;;;;;;;10377168;28;20277;-71
2023/05/26 00:25:55;;;;;;;16.38;10.00;;;;;;;;;;10377548;28;20390;-70
2023/05/26 00:30:55;;;;;;;18.17;10.07;;;;;;;;;;10377245;28;20050;-70
2023/05/26 00:35:55;;;;;;;16.05;8.48;;;;;;;;;;10377403;28;20259;-70
2023/05/26 00:40:56;;;;;;;15.10;7.03;;;;;;;;;;10376930;28;20050;-70
2023/05/26 00:45:56;;;;;;;11.80;7.75;;;;;;;;;;10376961;28;20029;-70
2023/05/26 00:50:56;;;;;;;16.97;8.73;;;;;;;;;;10377158;28;20231;-70
2023/05/26 00:55:57;;;;;;;13.90;8.23;;;;;;;;;;10376804;28;20033;-69
2023/05/26 01:00:57;;;;;;;18.65;8.80;;;;;;;;;;10376341;28;20025;-69
2023/05/26 01:05:57;;;;;;;14.10;8.77;;;;;;;;;;10374642;28;20320;-69
2023/05/26 01:11:02;;;;;;;14.32;8.40;;;;;;;;;;10376167;28;20025;-69
2023/05/26 01:16:06;;;;;;;19.17;8.57;;;;;;;;;;10376115;28;20154;-69
2023/05/26 01:21:15;;;;;;;14.85;9.05;;;;;;;;;;10375642;28;20038;-69
2023/05/26 01:26:15;;;;;;;16.65;9.02;;;;;;;;;;10375081;28;20034;-70
2023/05/26 01:31:16;;;;;;;14.80;9.80;;;;;;;;;;10375424;28;20312;-69
2023/05/26 01:36:16;;;;;;;15.15;9.43;;;;;;;;;;10372698;28;20022;-70
2023/05/26 01:41:16;;;;;;;15.82;8.27;;;;;;;;;;10374335;28;20064;-70
2023/05/26 01:46:16;;;;;;;17.25;8.90;;;;;;;;;;10374535;28;20216;-70
2023/05/26 01:51:18;;;;;;;19.92;9.75;;;;;;;;;;10375797;28;20058;-70
2023/05/26 01:56:20;;;;;;;16.63;9.73;;;;;;;;;;10390746;28;20025;-69
2023/05/26 02:01:23;;;;;;;15.73;10.05;;;;;;;;;;10374699;28;20026;-70
2023/05/26 02:06:25;;;;;;;18.17;10.75;;;;;;;;;;10374660;28;20092;-70
2023/05/26 02:11:25;;;;;;;14.32;9.35;;;;;;;;;;10374147;28;20029;-69
2023/05/26 02:16:26;;;;;;;14.57;10.32;;;;;;;;;;10374543;28;20053;-69
2023/05/26 02:21:26;;;;;;;13.73;9.82;;;;;;;;;;10369708;28;20053;-69
2023/05/26 02:26:26;;;;;;;20.85;11.93;;;;;;;;;;10378604;28;20042;-70
2023/05/26 02:31:26;;;;;;;17.48;9.38;;;;;;;;;;10382039;28;20079;-70
2023/05/26 02:36:27;;;;;;;13.55;9.50;;;;;;;;;;10381665;28;20029;-69
2023/05/26 02:41:27;;;;;;;13.38;9.63;;;;;;;;;;10381508;28;20284;-70
2023/05/26 02:46:28;;;;;;;15.40;9.15;;;;;;;;;;10381284;28;20030;-70
2023/05/26 02:51:28;;;;;;;13.35;8.57;;;;;;;;;;10381254;28;20312;-70
2023/05/26 02:56:28;;;;;;;20.13;10.27;;;;;;;;;;10380966;28;20104;-69
2023/05/26 03:01:29;;;;;;;18.13;8.95;;;;;;;;;;10380464;28;20228;-70
2023/05/26 03:06:30;;;;;;;18.13;9.93;;;;;;;;;;10380381;28;20061;-70
2023/05/26 03:11:30;;;;;;;16.00;8.70;;;;;;;;;;10379844;28;20060;-70
2023/05/26 03:16:30;;;;;;;17.27;8.20;;;;;;;;;;10379511;28;20049;-70
2023/05/26 03:21:31;;;;;;;16.27;9.27;;;;;;;;;;10381978;28;20046;-70
2023/05/26 03:26:31;;;;;;;16.95;10.88;;;;;;;;;;10402943;28;20057;-69
2023/05/26 03:31:31;;;;;;;15.82;9.23;;;;;;;;;;10420021;28;20030;-69
2023/05/26 03:36:31;;;;;;;17.83;9.18;;;;;;;;;;10418627;28;20021;-70
2023/05/26 03:41:33;;;;;;;16.50;9.68;;;;;;;;;;10419331;28;20025;-70
2023/05/26 03:46:33;;;;;;;19.58;9.13;;;;;;;;;;10419408;28;20333;-70
2023/05/26 03:51:35;;;;;;;17.55;9.68;;;;;;;;;;10419978;28;20055;-71
2023/05/26 03:56:36;;;;;;;18.60;11.18;;;;;;;;;;10381391;28;20037;-70
2023/05/26 04:01:36;;;;;;;16.92;9.68;;;;;;;;;;10419941;28;20319;-70
2023/05/26 04:06:37;;;;;;;21.67;12.00;;;;;;;;;;10418981;28;20041;-70
2023/05/26 04:11:37;;;;;;;19.83;11.85;;;;;;;;;;10415613;28;20280;-71
2023/05/26 04:16:37;;;;;;;24.90;12.90;;;;;;;;;;10417972;28;20041;-70
2023/05/26 04:21:37;;;;;;;25.95;14.60;;;;;;;;;;10411522;28;20105;-70
2023/05/26 04:26:38;;;;;;;25.88;13.48;;;;;;;;;;10412675;28;20375;-70
2023/05/26 04:31:41;;;;;;;20.95;12.00;;;;;;;;;;10376821;28;20040;-70
2023/05/26 04:36:41;;;;;;;26.10;12.32;;;;;;;;;;10376517;28;20026;-69
2023/05/26 04:41:43;;;;;;;25.58;11.93;;;;;;;;;;10376506;28;20378;-71
2023/05/26 04:46:44;;;;;;;16.48;10.18;;;;;;;;;;10376299;28;20084;-71
2023/05/26 04:51:44;;;;;;;15.88;9.60;;;;;;;;;;10372299;28;20034;-70
2023/05/26 04:56:44;;;;;;;12.40;9.30;;;;;;;;;;10373168;28;20034;-70
2023/05/26 05:01:46;;;;;;;29.65;10.32;;;;;;;;;;10372578;28;20505;-70
2023/05/26 05:06:47;;;;;;;16.65;8.10;;;;;;;;;;10375245;28;20029;-70
2023/05/26 05:11:47;;;;;;;17.33;8.68;;;;;;;;;;10373804;28;20038;-69
2023/05/26 05:16:48;;;;;;;12.95;8.10;;;;;;;;;;10375293;28;20268;-70
2023/05/26 05:21:48;;;;;;;13.43;8.93;;;;;;;;;;10374063;28;20060;-69
2023/05/26 05:26:48;;;;;;;11.35;6.45;;;;;;;;;;10372314;28;20033;-69
2023/05/26 05:31:48;;;;;;;11.48;6.07;;;;;;;;;;10371718;28;20029;-70
2023/05/26 05:36:49;;;;;;;10.55;6.30;;;;;;;;;;10370963;28;20022;-71
2023/05/26 05:41:49;;;;;;;12.07;6.15;;;;;;;;;;10374955;28;20034;-69
2023/05/26 05:46:51;;;;;;;31.95;7.35;;;;;;;;;;10374284;28;20080;-70
2023/05/26 05:51:51;;;;;;;9.73;5.32;;;;;;;;;;10373709;28;20022;-69
2023/05/26 05:56:52;;;;;;;13.07;6.57;;;;;;;;;;10374269;28;20218;-69
2023/05/26 06:01:52;;;;;;;14.82;6.57;;;;;;;;;;10373505;28;20232;-70
2023/05/26 06:06:52;;;;;;;18.23;7.03;;;;;;;;;;10374332;28;20041;-70
2023/05/26 06:11:52;;;;;;;29.58;9.23;;;;;;;;;;10373700;28;20037;-70
2023/05/26 06:16:53;;;;;;;16.60;9.13;;;;;;;;;;10373816;28;20300;-70
2023/05/26 06:21:53;;;;;;;28.53;11.20;;;;;;;;;;10373718;28;20228;-68
2023/05/26 06:26:53;;;;;;;21.80;11.05;;;;;;;;;;10373527;28;20088;-69
2023/05/26 06:31:54;;;;;;;23.52;11.25;;;;;;;;;;10373395;28;20052;-69
2023/05/26 06:36:54;;;;;;;19.40;11.40;;;;;;;;;;10373474;28;20030;-69
2023/05/26 06:41:54;;;;;;;21.17;12.80;;;;;;;;;;10373777;28;20312;-70
2023/05/26 06:46:55;;;;;;;17.90;10.67;;;;;;;;;;10373277;28;20064;-68
2023/05/26 06:51:56;;;;;;;30.90;13.35;;;;;;;;;;10371048;28;20235;-70
2023/05/26 06:56:56;;;;;;;15.23;10.40;;;;;;;;;;10371757;28;20255;-71
2023/05/26 07:01:56;;;;;;;22.20;11.18;;;;;;;;;;10371254;28;20096;-71
2023/05/26 07:06:56;;;;;;;16.77;10.27;;;;;;;;;;10371564;28;20034;-73
2023/05/26 07:11:57;;;;;;;26.35;10.48;;;;;;;;;;10374537;28;20335;-70
2023/05/26 07:16:57;;;;;;;19.42;10.35;;;;;;;;;;10378099;28;20037;-71
2023/05/26 07:21:58;;;;;;;24.75;12.10;;;;;;;;;;10386846;28;20088;-70
2023/05/26 07:26:58;;;;;;;20.20;10.55;;;;;;;;;;10418737;28;20222;-71
2023/05/26 07:31:59;;;;;;;18.10;10.10;;;;;;;;;;10418624;28;20038;-71
2023/05/26 07:36:59;;;;;;;18.00;10.05;;;;;;;;;;10418680;28;20342;-71
2023/05/26 07:41:59;;;;;;;28.73;11.93;;;;;;;;;;10418163;28;20037;-71
2023/05/26 07:46:59;;;;;;;20.92;7.90;;;;;;;;;;10418643;28;20037;-73
2023/05/26 07:52:00;;;;;;;17.92;8.20;;;;;;;;;;10418109;28;20360;-73
2023/05/26 07:57:00;;;;;;;15.93;8.40;;;;;;;;;;10418002;28;20048;-72
2023/05/26 08:02:01;;;;;;;13.02;7.50;;;;;;;;;;10417577;28;20119;-72
2023/05/26 08:07:01;;;;;;;14.50;7.03;;;;;;;;;;10416906;28;20223;-73
2023/05/26 08:12:01;;;;;;;11.52;8.15;;;;;;;;;;10417060;28;20029;-71
2023/05/26 08:17:01;;;;;;;10.57;7.27;;;;;;;;;;10411664;28;20036;-73
2023/05/26 08:22:02;;;;;;;8.75;5.97;;;;;;;;;;10376002;28;20045;-73
2023/05/26 08:27:02;;;;;;;9.87;5.57;;;;;;;;;;10377439;28;20022;-73
2023/05/26 08:32:02;;;;;;;10.73;5.87;;;;;;;;;;10375976;28;20088;-73
2023/05/26 08:37:03;;;;;;;18.13;5.17;;;;;;;;;;10376646;28;20366;-74
2023/05/26 08:42:05;;;;;;;7.20;4.38;;;;;;;;;;10377069;28;20354;-74
2023/05/26 08:47:06;;;;;;;7.03;3.72;;;;;;;;;;10375563;28;20041;-73
2023/05/26 08:52:11;;;;;;;13.13;4.43;;;;;;;;;;10375683;28;20254;-74
2023/05/26 08:57:11;;;;;;;12.80;4.18;;;;;;;;;;10376101;28;20304;-74
2023/05/26 09:02:12;;;;;;;7.18;3.80;;;;;;;;;;10376503;28;20025;-73
2023/05/26 09:07:12;;;;;;;6.67;4.10;;;;;;;;;;10375473;28;20366;-74
2023/05/26 09:12:13;;;;;;;4.40;2.90;;;;;;;;;;10375737;28;20018;-73
2023/05/26 09:17:13;;;;;;;6.57;4.97;;;;;;;;;;10375257;28;20029;-73
2023/05/26 09:22:14;;;;;;;17.07;7.70;;;;;;;;;;10374751;28;20166;-73
2023/05/26 09:27:21;;;;;;;7.80;4.97;;;;;;;;;;10374663;28;20264;-73
2023/05/26 09:32:25;;;;;;;10.43;4.57;;;;;;;;;;10374945;28;20212;-73
2023/05/26 09:37:28;;;;;;;6.57;3.95;;;;;;;;;;10378584;28;20208;-73
2023/05/26 09:42:28;;;;;;;12.23;4.97;;;;;;;;;;10374344;28;20041;-74
2023/05/26 09:47:33;;;;;;;6.13;3.65;;;;;;;;;;10374314;28;20036;-73
2023/05/26 09:52:34;;;;;;;6.55;3.47;;;;;;;;;;10374010;28;20076;-74
2023/05/26 09:57:35;;;;;;;6.88;3.28;;;;;;;;;;10373675;28;20075;-73
2023/05/26 10:02:36;;;;;;;11.27;3.85;;;;;;;;;;10373666;28;20029;-74
2023/05/26 10:07:37;;;;;;;7.13;4.07;;;;;;;;;;10373264;28;20276;-73
2023/05/26 10:12:37;;;;;;;12.80;4.60;;;;;;;;;;10373317;28;20072;-73
2023/05/26 10:17:38;;;;;;;8.07;4.75;;;;;;;;;;10373906;28;20304;-73
2023/05/26 10:22:57;;;;;;;8.73;4.75;;;;;;;;;;10373230;28;20398;-72
2023/05/26 10:28:16;;;;;;;8.77;4.38;;;;;;;;;;10337194;28;20255;-72
2023/05/26 10:33:16;;;;;;;9.80;4.68;;;;;;;;;;10372556;28;20029;-72
2023/05/26 10:38:17;;;;;;;9.73;5.18;;;;;;;;;;10373807;28;20026;-72
2023/05/26 10:43:20;;;;;;;7.13;4.43;;;;;;;;;;10370987;28;20025;-72
2023/05/26 10:48:21;;;;;;;8.85;5.07;;;;;;;;;;10358936;28;20101;-71
2023/05/26 10:53:21;;;;;;;8.40;4.80;;;;;;;;;;10340808;28;20030;-72
2023/05/26 10:58:28;;;;;;;9.43;5.13;;;;;;;;;;10351870;28;20331;-72
2023/05/26 11:03:41;;;;;;;8.80;6.00;;;;;;;;;;10380718;28;20029;-73
2023/05/26 11:08:49;;;;;;;10.48;6.05;;;;;;;;;;10380527;28;20034;-71
2023/05/26 11:13:50;;;;;;;7.72;5.38;;;;;;;;;;10380339;28;20034;-71
2023/05/26 11:18:52;;;;;;;8.82;6.15;;;;;;;;;;10362782;28;20026;-71
2023/05/26 11:23:53;;;;;;;10.85;6.20;;;;;;;;;;10377203;28;20268;-72
2023/05/26 11:28:53;;;;;;;10.63;6.55;;;;;;;;;;10379714;28;20350;-72
2023/05/26 11:33:54;;;;;;;11.63;6.37;;;;;;;;;;10378163;28;20292;-72
2023/05/26 11:38:59;;;;;;;11.82;7.75;;;;;;;;;;10379511;28;20085;-73
2023/05/26 11:43:59;;;;;;;8.40;4.57;;;;;;;;;;10378760;28;20038;-72
2023/05/26 11:49:01;;;;;;;7.87;4.77;;;;;;;;;;10379108;28;20034;-72
2023/05/26 11:54:08;;;;;;;8.85;5.18;;;;;;;;;;10378801;28;20149;-71
2023/05/26 11:59:08;;;;;;;12.95;4.38;;;;;;;;;;10377131;28;20033;-72
2023/05/26 12:04:08;;;;;;;16.77;5.63;;;;;;;;;;10378046;28;20366;-72
2023/05/26 12:09:22;;;;;;;11.82;4.18;;;;;;;;;;10377964;28;20357;-73
2023/05/26 12:14:22;;;;;;;6.38;3.20;;;;;;;;;;10377294;28;20207;-72
2023/05/26 12:19:22;;;;;;;12.43;3.85;;;;;;;;;;10375933;28;20074;-72
2023/05/26 12:24:30;;;;;;;7.00;3.70;;;;;;;;;;10377458;28;20057;-73
2023/05/26 12:29:30;;;;;;;;;;;;;;;;;;10377326;28;20379;-71
2023/05/26 12:34:30;;;;;;;3.90;3.08;;;;;;;;;;10376958;28;19917;-73
2023/05/26 12:39:31;;;;;;;8.77;3.67;;;;;;;;;;10376731;28;20322;-73
2023/05/26 12:44:31;;;;;;;6.40;3.15;;;;;;;;;;10374994;28;20028;-72
2023/05/26 12:49:32;;;;;;;5.18;3.47;;;;;;;;;;10376283;28;20029;-73
2023/05/26 12:54:32;;;;;;;9.70;3.47;;;;;;;;;;10376017;28;20342;-73
2023/05/26 12:59:36;;;;;;;7.18;3.60;;;;;;;;;;10376016;28;20057;-73
2023/05/26 13:04:36;;;;;;;6.68;2.60;;;;;;;;;;10375384;28;20101;-72
2023/05/26 13:09:37;;;;;;;9.52;3.17;;;;;;;;;;10375297;28;20215;-72
2023/05/26 13:14:37;;;;;;;8.27;3.72;;;;;;;;;;10375503;28;20030;-72
2023/05/26 13:19:37;;;;;;;6.90;4.03;;;;;;;;;;10375504;28;20048;-73
2023/05/26 13:24:38;;;;;;;3.87;3.17;;;;;;;;;;10375134;28;20172;-72
2023/05/26 13:29:38;;;;;;;7.10;3.80;;;;;;;;;;10375217;28;20037;-72
2023/05/26 13:34:38;;;;;;;5.97;4.00;;;;;;;;;;10372568;28;20101;-72
2023/05/26 13:39:39;;;;;;;6.82;3.60;;;;;;;;;;10370907;28;20041;-72
2023/05/26 13:44:39;;;;;;;9.83;4.10;;;;;;;;;;10372640;28;20554;-73
2023/05/26 13:49:40;;;;;;;6.45;3.35;;;;;;;;;;10372368;28;20272;-72
2023/05/26 13:54:40;;;;;;;6.33;3.77;;;;;;;;;;10371048;28;20304;-72
2023/05/26 13:59:40;;;;;;;5.43;3.25;;;;;;;;;;10372112;28;20029;-71
2023/05/26 14:04:40;;;;;;;8.32;3.78;;;;;;;;;;10372210;28;20311;-72
2023/05/26 14:09:41;;;;;;;15.67;6.70;;;;;;;;;;10373274;28;20053;-73
2023/05/26 14:14:41;;;;;;;7.53;3.88;;;;;;;;;;10372161;28;20247;-71
2023/05/26 14:19:42;;;;;;;6.10;4.15;;;;;;;;;;10371928;28;20354;-70
2023/05/26 14:24:43;;;;;;;6.88;3.85;;;;;;;;;;10411400;28;20266;-70
2023/05/26 14:29:43;;;;;;;4.13;3.03;;;;;;;;;;10421088;28;20041;-71
2023/05/26 14:34:44;;;;;;;11.20;4.05;;;;;;;;;;10420611;28;20045;-73
2023/05/26 14:39:45;;;;;;;5.65;4.13;;;;;;;;;;10425398;28;20361;-72
2023/05/26 14:44:45;;;;;;;11.32;3.20;;;;;;;;;;10420419;28;20037;-72
2023/05/26 14:49:45;;;;;;;5.30;3.80;;;;;;;;;;10419830;28;20513;-72
2023/05/26 14:54:46;;;;;;;10.43;4.85;;;;;;;;;;10419488;28;20036;-71
2023/05/26 14:59:46;;;;;;;13.75;5.65;;;;;;;;;;10419707;28;20374;-72
2023/05/26 15:04:46;;;;;;;7.82;4.00;;;;;;;;;;10419207;28;20040;-72
2023/05/26 15:09:46;;;;;;;8.77;4.15;;;;;;;;;;10419033;28;20079;-72
2023/05/26 15:14:47;;;;;;;5.68;4.53;;;;;;;;;;10419109;28;20319;-73
2023/05/26 15:19:47;;;;;;;5.60;4.38;;;;;;;;;;10401207;28;20037;-72
2023/05/26 15:24:47;;;;;;;5.25;3.22;;;;;;;;;;10387514;28;20360;-72
2023/05/26 15:29:47;;;;;;;8.27;3.88;;;;;;;;;;10377584;28;20038;-72
2023/05/26 15:34:48;;;;;;;9.43;4.45;;;;;;;;;;10377673;28;20042;-71
2023/05/26 15:39:48;;;;;;;7.75;4.40;;;;;;;;;;10377405;28;20247;-71
2023/05/26 15:44:48;;;;;;;19.02;4.32;;;;;;;;;;10377153;28;20065;-73
2023/05/26 15:49:48;;;;;;;8.80;4.32;;;;;;;;;;10376208;28;20067;-73
2023/05/26 15:54:48;;;;;;;9.25;2.22;;;;;;;;;;10376605;28;20061;-73
2023/05/26 15:59:49;;;;;;;5.18;1.55;;;;;;;;;;10376692;28;20365;-72
2023/05/26 16:04:49;;;;;;;3.47;1.93;;;;;;;;;;10376950;28;20042;-72
2023/05/26 16:09:49;;;;;;;5.43;2.28;;;;;;;;;;10376244;28;20083;-72
2023/05/26 16:14:50;;;;;;;4.88;2.38;;;;;;;;;;10375848;28;20128;-73
2023/05/26 16:19:50;;;;;;;6.65;3.03;;;;;;;;;;10375884;28;20038;-73
2023/05/26 16:24:50;;;;;;;8.40;3.10;;;;;;;;;;10407920;28;20056;-73
2023/05/26 16:29:50;;;;;;;7.30;3.35;;;;;;;;;;10416441;28;20204;-74
2023/05/26 16:34:51;;;;;;;4.78;3.72;;;;;;;;;;10415780;28;20040;-73
2023/05/26 16:39:51;;;;;;;5.15;3.42;;;;;;;;;;10414586;28;20380;-73
2023/05/26 16:44:51;;;;;;;7.47;3.50;;;;;;;;;;10412422;28;20029;-72
2023/05/26 16:49:52;;;;;;;3.88;2.85;;;;;;;;;;10406866;28;20025;-73
2023/05/26 16:54:52;;;;;;;4.13;2.95;;;;;;;;;;10408664;28;20356;-74
2023/05/26 16:59:52;;;;;;;5.10;3.15;;;;;;;;;;10406223;28;20105;-73
2023/05/26 17:04:52;;;;;;;7.07;3.17;;;;;;;;;;10406347;28;20041;-73
2023/05/26 17:09:53;;;;;;;8.80;3.50;;;;;;;;;;10402703;28;20061;-74
2023/05/26 17:14:53;;;;;;;8.07;4.18;;;;;;;;;;10404758;28;20037;-75
2023/05/26 17:19:53;;;;;;;5.45;3.75;;;;;;;;;;10404932;28;20029;-74
2023/05/26 17:24:54;;;;;;;8.80;4.43;;;;;;;;;;10371122;28;20058;-73
2023/05/26 17:29:54;;;;;;;10.77;4.05;;;;;;;;;;10358643;28;20486;-73
2023/05/26 17:34:57;;;;;;;7.70;3.67;;;;;;;;;;10353856;28;20041;-71
2023/05/26 17:39:57;;;;;;;7.95;4.15;;;;;;;;;;10358551;28;20025;-72
2023/05/26 17:44:58;;;;;;;7.03;3.80;;;;;;;;;;10355554;28;20328;-72
2023/05/26 17:49:58;;;;;;;6.33;3.40;;;;;;;;;;10355288;28;21781;-72
2023/05/26 17:54:58;;;;;;;8.40;3.58;;;;;;;;;;10356087;28;20621;-76
2023/05/26 17:59:59;;;;;;;4.45;3.42;;;;;;;;;;10367944;28;20034;-76
2023/05/26 18:04:59;;;;;;;7.13;4.20;;;;;;;;;;10354043;28;20117;-75
2023/05/26 18:09:59;;;;;;;8.73;4.57;;;;;;;;;;10354577;28;20281;-74
2023/05/26 18:14:59;;;;;;;11.73;4.97;;;;;;;;;;10371019;28;20109;-74
2023/05/26 18:20:02;;;;;;;6.25;3.53;;;;;;;;;;10354620;28;20109;-75
2023/05/26 18:25:02;;;;;;;7.78;4.05;;;;;;;;;;10329149;28;1132748;-72
2023/05/26 18:30:05;;;;;;;6.17;4.10;;;;;;;;;;10347316;28;20053;-75
2023/05/26 18:35:06;;;;;;;13.55;5.20;;;;;;;;;;10376549;28;20285;-75
2023/05/26 18:40:07;;;;;;;6.22;4.20;;;;;;;;;;10372943;28;20335;-75
2023/05/26 18:45:08;;;;;;;9.60;4.57;;;;;;;;;;10353225;28;20058;-73
2023/05/26 18:50:09;;;;;;;10.52;4.95;;;;;;;;;;10359487;28;20379;-74
2023/05/26 18:55:09;;;;;;;8.88;4.65;;;;;;;;;;10368441;28;20084;-75
2023/05/26 19:00:11;;;;;;;10.50;4.35;;;;;;;;;;10351070;28;20075;-73
2023/05/26 19:05:11;;;;;;;8.38;4.70;;;;;;;;;;10355321;28;20049;-76
2023/05/26 19:10:12;;;;;;;10.23;4.73;;;;;;;;;;10363230;28;20232;-79
2023/05/26 19:15:12;;;;;;;11.80;5.20;;;;;;;;;;10360021;28;20641;-75
2023/05/26 19:20:12;;;;;;;11.63;6.10;;;;;;;;;;10354264;28;20424;-75
2023/05/26 19:25:13;;;;;;;10.63;5.55;;;;;;;;;;10354112;28;20049;-76
2023/05/26 19:30:13;;;;;;;10.80;5.37;;;;;;;;;;10361897;28;20038;-76
2023/05/26 19:35:15;;;;;;;14.82;5.82;;;;;;;;;;10363753;28;20133;-78
2023/05/26 19:40:17;;;;;;;13.45;5.28;;;;;;;;;;10356683;28;20104;-77
2023/05/26 19:45:19;;;;;;;17.23;6.90;;;;;;;;;;10375957;28;20049;-75
2023/05/26 19:50:20;;;;;;;10.00;6.15;;;;;;;;;;10359511;28;20256;-78
2023/05/26 19:55:20;;;;;;;14.48;8.57;;;;;;;;;;10356446;28;20031;-78
2023/05/26 20:00:21;;;;;;;13.97;6.47;;;;;;;;;;10358499;28;20033;-77
2023/05/26 20:05:21;;;;;;;17.77;6.05;;;;;;;;;;10366823;28;20265;-77
2023/05/26 20:10:22;;;;;;;11.35;6.22;;;;;;;;;;10367347;28;20154;-75
2023/05/26 20:15:22;;;;;;;22.23;6.35;;;;;;;;;;10361933;28;20030;-76
2023/05/26 20:20:23;;;;;;;13.93;6.20;;;;;;;;;;10362643;28;20319;-76
2023/05/26 20:25:23;;;;;;;16.40;6.35;;;;;;;;;;10363112;28;20033;-75
2023/05/26 20:30:23;;;;;;;14.43;6.40;;;;;;;;;;10373167;28;20034;-75
2023/05/26 20:35:24;;;;;;;13.70;6.33;;;;;;;;;;10354233;28;20081;-76
2023/05/26 20:40:24;;;;;;;12.20;6.22;;;;;;;;;;10371922;28;20042;-75
2023/05/26 20:45:25;;;;;;;13.63;6.50;;;;;;;;;;10378955;28;20017;-76
2023/05/26 20:50:25;;;;;;;14.68;7.00;;;;;;;;;;10376821;28;20394;-77
2023/05/26 20:55:26;;;;;;;10.70;5.83;;;;;;;;;;10357208;28;20022;-77
2023/05/26 21:00:27;;;;;;;15.68;6.95;;;;;;;;;;10355810;28;20359;-77
2023/05/26 21:05:27;;;;;;;11.15;6.78;;;;;;;;;;10362651;28;20076;-77
2023/05/26 21:10:28;;;;;;;14.68;6.75;;;;;;;;;;10361003;28;20244;-77
2023/05/26 21:15:28;;;;;;;13.68;7.05;;;;;;;;;;10358406;28;20562;-77
2023/05/26 21:20:28;;;;;;;14.80;7.88;;;;;;;;;;10360974;28;20029;-76
2023/05/26 21:25:28;;;;;;;14.95;8.05;;;;;;;;;;10407615;28;20418;-77
2023/05/26 21:30:30;;;;;;;17.23;8.57;;;;;;;;;;10410420;28;20033;-78
2023/05/26 21:35:30;;;;;;;18.15;8.85;;;;;;;;;;10411150;28;20368;-77
2023/05/26 21:40:30;;;;;;;21.60;9.95;;;;;;;;;;10412211;28;20068;-78
2023/05/26 21:45:31;;;;;;;18.55;9.40;;;;;;;;;;10413947;28;20060;-78
2023/05/26 21:50:32;;;;;;;17.67;8.70;;;;;;;;;;10431338;28;20216;-77
2023/05/26 21:55:32;;;;;;;16.52;8.95;;;;;;;;;;10447508;28;20049;-78
2023/05/26 22:00:32;;;;;;;25.23;10.02;;;;;;;;;;10416604;28;20025;-77
2023/05/26 22:05:33;;;;;;;23.90;10.98;;;;;;;;;;10416964;28;20196;-79
2023/05/26 22:10:33;;;;;;;20.73;10.00;;;;;;;;;;10416694;28;20041;-77
2023/05/26 22:15:33;;;;;;;24.15;9.40;;;;;;;;;;10417052;28;20260;-77
2023/05/26 22:20:33;;;;;;;24.67;11.50;;;;;;;;;;10416290;28;20196;-77
2023/05/26 22:25:34;;;;;;;26.92;10.63;;;;;;;;;;10378362;28;20038;-78
2023/05/26 22:30:34;;;;;;;16.73;8.67;;;;;;;;;;10375750;28;20032;-78
2023/05/26 22:35:34;;;;;;;18.42;8.38;;;;;;;;;;10375165;28;20208;-78
2023/05/26 22:40:34;;;;;;;17.40;9.65;;;;;;;;;;10391091;28;20026;-78
2023/05/26 22:45:35;;;;;;;21.10;10.30;;;;;;;;;;10424688;28;20276;-77
2023/05/26 22:50:35;;;;;;;13.57;9.33;;;;;;;;;;10420685;28;20038;-78
2023/05/26 22:55:36;;;;;;;16.23;8.75;;;;;;;;;;10382604;28;20273;-77
2023/05/26 23:00:36;;;;;;;13.77;8.73;;;;;;;;;;10376164;28;20032;-77
2023/05/26 23:05:36;;;;;;;15.68;9.32;;;;;;;;;;10423543;28;20025;-77
2023/05/26 23:10:36;;;;;;;13.57;9.48;;;;;;;;;;10423409;28;20060;-78
2023/05/26 23:15:36;;;;;;;16.55;8.45;;;;;;;;;;10384332;28;20030;-77
2023/05/26 23:20:37;;;;;;;16.67;8.27;;;;;;;;;;10382742;28;20076;-77
2023/05/26 23:25:37;;;;;;;16.02;9.07;;;;;;;;;;10382015;28;20065;-77
2023/05/26 23:30:37;;;;;;;12.43;8.27;;;;;;;;;;10382188;28;20318;-77
2023/05/26 23:35:38;;;;;;;15.25;9.15;;;;;;;;;;10382645;28;20080;-78
2023/05/26 23:40:38;;;;;;;14.63;9.23;;;;;;;;;;10391039;28;20033;-78
2023/05/26 23:45:38;;;;;;;11.85;7.88;;;;;;;;;;10420574;28;20587;-77
2023/05/26 23:50:39;;;;;;;11.18;8.02;;;;;;;;;;10364361;28;20049;-78
2023/05/26 23:55:39;;;;;;;14.83;8.00;;;;;;;;;;10380637;28;20080;-78
